createdAt,value
2019-04-19T00:00:20.187Z,991.5
2019-04-19T00:01:24.681Z,991.5
2019-04-19T00:02:41.471Z,991.5
2019-04-19T00:03:46.811Z,991.5
2019-04-19T00:04:57.237Z,991.5
2019-04-19T00:06:04.949Z,991.4
2019-04-19T00:07:25.484Z,991.5
2019-04-19T00:10:07.912Z,991.5
2019-04-19T00:11:39.995Z,991.5
2019-04-19T00:12:56.920Z,991.5
2019-04-19T00:14:02.730Z,991.6
2019-04-19T00:15:05.524Z,991.5
2019-04-19T00:16:08.739Z,991.5
2019-04-19T00:17:23.802Z,991.6
2019-04-19T00:18:28.236Z,991.5
2019-04-19T00:20:21.782Z,991.6
2019-04-19T00:22:13.079Z,991.5
2019-04-19T00:23:36.523Z,991.6
2019-04-19T00:24:41.586Z,991
2019-04-19T00:25:44.880Z,991.4
2019-04-19T00:26:48.395Z,991.5
2019-04-19T00:27:58.492Z,991.4
2019-04-19T00:29:09.741Z,991.6
2019-04-19T00:30:40.514Z,991.6
2019-04-19T00:32:20.251Z,991.6
2019-04-19T00:33:39.371Z,991.6
2019-04-19T00:34:44.054Z,991.6
2019-04-19T00:35:47.432Z,991.6
2019-04-19T00:36:50.820Z,991.6
2019-04-19T00:38:06.861Z,991.6
2019-04-19T00:39:44.775Z,991.6
2019-04-19T00:41:27.624Z,991.6
2019-04-19T00:43:07.211Z,991.6
2019-04-19T00:46:28.999Z,991.6
2019-04-19T00:48:01.605Z,991.5
2019-04-19T00:49:27.666Z,991.5
2019-04-19T00:50:52.565Z,991.7
2019-04-19T00:52:34.151Z,991.6
2019-04-19T00:53:55.525Z,991.6
2019-04-19T00:55:16.434Z,991.6
2019-04-19T00:56:46.535Z,991.6
2019-04-19T00:58:11.972Z,991.6
2019-04-19T00:59:19.456Z,991.6
2019-04-19T01:00:30.849Z,991.5
2019-04-19T01:01:37.145Z,991.6
2019-04-19T01:02:51.121Z,991.6
2019-04-19T01:03:55.544Z,991.6
2019-04-19T01:05:09.506Z,991.5
2019-04-19T01:06:19.088Z,991.6
2019-04-19T01:07:34.325Z,991.6
2019-04-19T01:08:59.154Z,991.5
2019-04-19T01:10:36.751Z,991.6
2019-04-19T01:12:10.157Z,991.6
2019-04-19T01:13:55.739Z,991.6
2019-04-19T01:15:24.955Z,991.6
2019-04-19T01:17:01.436Z,991.7
2019-04-19T01:18:31.840Z,991.7
2019-04-19T01:19:50.327Z,991.7
2019-04-19T01:20:54.142Z,991.7
2019-04-19T01:21:57.197Z,991.7
2019-04-19T01:23:10.637Z,991.7
2019-04-19T01:24:17.658Z,991.7
2019-04-19T01:25:30.220Z,991.6
2019-04-19T01:26:43.580Z,991.6
2019-04-19T01:27:48.745Z,991.7
2019-04-19T01:29:02.304Z,991.7
2019-04-19T01:30:08.272Z,991.6
2019-04-19T01:31:21.141Z,991.6
2019-04-19T01:32:26.197Z,991.7
2019-04-19T01:33:39.271Z,991.7
2019-04-19T01:34:45.714Z,991.8
2019-04-19T01:35:56.882Z,991.7
2019-04-19T01:37:03.284Z,991.7
2019-04-19T01:38:13.559Z,991.8
2019-04-19T01:39:39.166Z,991.7
2019-04-19T01:41:20.413Z,991.8
2019-04-19T01:43:01.502Z,991.8
2019-04-19T01:44:33.064Z,991.8
2019-04-19T01:46:09.165Z,991.8
2019-04-19T01:47:49.684Z,991.8
2019-04-19T01:49:17.800Z,991.8
2019-04-19T01:50:50.048Z,991.8
2019-04-19T01:52:50.160Z,991.8
2019-04-19T01:54:21.655Z,991.9
2019-04-19T01:55:38.915Z,991
2019-04-19T01:56:57.059Z,991.8
2019-04-19T01:58:11.103Z,991.8
2019-04-19T01:59:14.321Z,991.8
2019-04-19T02:00:34.632Z,991.8
2019-04-19T02:01:39.520Z,991.8
2019-04-19T02:02:54.681Z,991.8
2019-04-19T02:03:58.754Z,991.8
2019-04-19T02:05:12.220Z,991.8
2019-04-19T02:06:26.384Z,991.8
2019-04-19T02:07:36.117Z,991.8
2019-04-19T02:08:47.921Z,991.8
2019-04-19T02:10:18.245Z,991.9
2019-04-19T02:11:47.059Z,991.8
2019-04-19T02:13:16.701Z,991.9
2019-04-19T02:14:40.176Z,991.9
2019-04-19T02:15:51.701Z,991.9
2019-04-19T02:17:06.255Z,991.9
2019-04-19T02:18:11.374Z,991.6
2019-04-19T02:19:26.346Z,991.9
2019-04-19T02:20:41.233Z,991.9
2019-04-19T02:21:49.308Z,991.9
2019-04-19T02:23:06.137Z,991.9
2019-04-19T02:24:10.540Z,992
2019-04-19T02:25:23.534Z,991.9
2019-04-19T02:26:27.976Z,991.9
2019-04-19T02:27:40.395Z,992
2019-04-19T02:28:47.285Z,992
2019-04-19T02:30:05.207Z,992
2019-04-19T02:32:00.495Z,992
2019-04-19T02:34:21.039Z,992
2019-04-19T02:35:59.590Z,992
2019-04-19T02:38:10.864Z,992
2019-04-19T02:40:38.239Z,992
2019-04-19T02:42:30.244Z,992.1
2019-04-19T02:44:35.549Z,992.1
2019-04-19T02:47:05.439Z,992.1
2019-04-19T02:49:01.191Z,992.1
2019-04-19T02:51:29.540Z,992
2019-04-19T02:55:04.535Z,992.2
2019-04-19T02:58:39.473Z,992.1
2019-04-19T03:00:29.780Z,992.2
2019-04-19T03:02:24.054Z,992.2
2019-04-19T03:06:16.278Z,992.1
2019-04-19T03:07:24.578Z,992.2
2019-04-19T03:08:26.914Z,992.1
2019-04-19T03:09:39.174Z,992.2
2019-04-19T03:11:08.917Z,992.3
2019-04-19T03:12:58.407Z,992.2
2019-04-19T03:14:38.718Z,992
2019-04-19T03:16:25.057Z,992.2
2019-04-19T03:18:00.947Z,992.1
2019-04-19T03:19:48.263Z,992.2
2019-04-19T03:21:30.633Z,991.9
2019-04-19T03:23:08.025Z,992.3
2019-04-19T03:24:42.084Z,992.1
2019-04-19T03:26:19.464Z,992.3
2019-04-19T03:27:55.214Z,992.3
2019-04-19T03:29:23.424Z,992.2
2019-04-19T03:32:21.603Z,992.4
2019-04-19T03:35:43.162Z,992.5
2019-04-19T03:38:55.064Z,992.3
2019-04-19T03:40:43.737Z,992.5
2019-04-19T03:42:40.383Z,992.5
2019-04-19T03:44:15.501Z,992.4
2019-04-19T03:46:07.585Z,992.5
2019-04-19T03:48:04.204Z,992.5
2019-04-19T03:49:56.924Z,992.5
2019-04-19T03:51:47.375Z,992.5
2019-04-19T03:57:42.331Z,992.5
2019-04-19T03:58:48.420Z,992.6
2019-04-19T03:59:51.956Z,992.5
2019-04-19T04:00:55.866Z,992.5
2019-04-19T04:02:01.397Z,992.5
2019-04-19T04:03:24.158Z,992.4
2019-04-19T04:04:33.354Z,992.6
2019-04-19T04:05:47.293Z,992.5
2019-04-19T04:06:50.831Z,992.6
2019-04-19T04:08:07.389Z,992.7
2019-04-19T04:09:13.937Z,992.6
2019-04-19T04:10:23.706Z,992.7
2019-04-19T04:11:31.529Z,992.7
2019-04-19T04:12:55.292Z,992.7
2019-04-19T04:14:24.452Z,992.7
2019-04-19T04:15:56.590Z,992.7
2019-04-19T04:17:07.593Z,992.8
2019-04-19T04:18:10.926Z,992.7
2019-04-19T04:19:14.331Z,992.8
2019-04-19T04:20:16.330Z,992.8
2019-04-19T04:21:32.237Z,992.8
2019-04-19T04:22:43.861Z,992.7
2019-04-19T04:24:08.891Z,992.7
2019-04-19T04:25:26.591Z,992.6
2019-04-19T04:26:52.636Z,992.7
2019-04-19T04:29:32.474Z,992.8
2019-04-19T04:31:03.039Z,992.8
2019-04-19T04:32:34.005Z,992.8
2019-04-19T04:34:03.407Z,992.7
2019-04-19T04:35:35.758Z,992.7
2019-04-19T04:37:20.255Z,992.8
2019-04-19T04:38:38.326Z,992.6
2019-04-19T04:39:43.016Z,992.7
2019-04-19T04:40:46.259Z,992.8
2019-04-19T04:41:58.267Z,992.8
2019-04-19T04:43:37.648Z,992.9
2019-04-19T04:46:44.650Z,992.9
2019-04-19T04:48:31.752Z,993.1
2019-04-19T04:51:44.079Z,993
2019-04-19T04:52:54.291Z,992.8
2019-04-19T04:53:57.135Z,993.1
2019-04-19T04:55:00.881Z,993.1
2019-04-19T04:56:08.534Z,993
2019-04-19T04:57:17.711Z,993.1
2019-04-19T04:58:35.704Z,993.1
2019-04-19T04:59:45.269Z,993.2
2019-04-19T05:01:04.721Z,993
2019-04-19T05:02:40.792Z,993.2
2019-04-19T05:04:18.358Z,993.3
2019-04-19T05:06:06.092Z,993.2
2019-04-19T05:08:02.928Z,993.3
2019-04-19T05:09:48.587Z,993.3
2019-04-19T05:11:29.546Z,993.3
2019-04-19T05:13:21.316Z,993.4
2019-04-19T05:14:55.759Z,993.5
2019-04-19T05:16:50.739Z,993.5
2019-04-19T05:18:38.750Z,993.5
2019-04-19T05:20:27.130Z,993.4
2019-04-19T05:22:04.357Z,993.5
2019-04-19T05:23:45.243Z,993.6
2019-04-19T05:25:35.614Z,993.5
2019-04-19T05:27:14.608Z,993.5
2019-04-19T05:28:53.909Z,993.4
2019-04-19T05:30:02.808Z,993.4
2019-04-19T05:31:12.836Z,993.4
2019-04-19T05:32:30.025Z,993.2
2019-04-19T05:35:29.450Z,993.6
2019-04-19T05:37:11.379Z,993.6
2019-04-19T05:39:07.624Z,993.5
2019-04-19T05:40:38.709Z,993.2
2019-04-19T05:42:10.413Z,993.6
2019-04-19T05:47:14.394Z,993.6
2019-04-19T05:48:45.613Z,993.6
2019-04-19T05:50:29.946Z,993.7
2019-04-19T05:52:07.266Z,993.7
2019-04-19T05:53:27.643Z,993.3
2019-04-19T05:54:32.772Z,993.6
2019-04-19T05:55:35.349Z,993.6
2019-04-19T05:56:49.136Z,993.6
2019-04-19T05:58:19.187Z,993.6
2019-04-19T05:59:47.219Z,993.7
2019-04-19T06:01:27.315Z,993.6
2019-04-19T06:03:01.198Z,993.6
2019-04-19T06:04:48.048Z,993.6
2019-04-19T06:06:47.404Z,993.6
2019-04-19T06:08:15.175Z,993.5
2019-04-19T06:09:21.532Z,993.6
2019-04-19T06:10:39.813Z,993.6
2019-04-19T06:11:49.638Z,993.6
2019-04-19T06:13:07.392Z,993.6
2019-04-19T06:14:56.621Z,993.6
2019-04-19T06:16:38.716Z,993.6
2019-04-19T06:18:21.403Z,993.6
2019-04-19T06:20:03.725Z,993.5
2019-04-19T06:21:42.347Z,993.5
2019-04-19T06:25:00.275Z,993.5
2019-04-19T06:27:17.563Z,993.5
2019-04-19T06:29:01.012Z,993.5
2019-04-19T06:32:07.191Z,993.5
2019-04-19T06:34:03.393Z,993.6
2019-04-19T06:35:35.982Z,993.6
2019-04-19T06:36:41.830Z,993.5
2019-04-19T06:37:44.489Z,993.6
2019-04-19T06:38:50.598Z,993.5
2019-04-19T06:40:14.196Z,993.7
2019-04-19T06:41:24.910Z,993.6
2019-04-19T06:42:43.458Z,993.7
2019-04-19T06:44:08.376Z,993.6
2019-04-19T06:45:49.007Z,993.7
2019-04-19T06:47:16.201Z,993.7
2019-04-19T06:48:28.480Z,993.8
2019-04-19T06:49:34.697Z,993.7
2019-04-19T06:50:46.210Z,993.7
2019-04-19T06:52:07.635Z,993.8
2019-04-19T06:53:14.467Z,993.7
2019-04-19T06:54:28.464Z,993.7
2019-04-19T06:55:40.035Z,993.7
2019-04-19T06:57:03.149Z,993.7
2019-04-19T06:58:23.925Z,993.8
2019-04-19T06:59:57.574Z,993.6
2019-04-19T07:01:30.057Z,993.8
2019-04-19T07:02:34.851Z,993.8
2019-04-19T07:03:38.327Z,993.9
2019-04-19T07:04:59.001Z,993.9
2019-04-19T07:06:42.516Z,993.9
2019-04-19T07:09:02.577Z,993.6
2019-04-19T07:11:00.077Z,993.9
2019-04-19T07:12:51.074Z,993.8
2019-04-19T07:14:11.858Z,993.8
2019-04-19T07:16:07.210Z,994
2019-04-19T07:17:50.583Z,994.2
2019-04-19T07:19:38.507Z,994.3
2019-04-19T07:21:27.612Z,994.4
2019-04-19T07:23:06.405Z,994.5
2019-04-19T07:25:04.510Z,994.6
2019-04-19T07:26:52.068Z,994.7
2019-04-19T07:28:25.100Z,994.8
2019-04-19T07:29:31.525Z,994.9
2019-04-19T07:30:34.644Z,994.8
2019-04-19T07:31:39.802Z,994.8
2019-04-19T07:32:58.071Z,995
2019-04-19T07:34:30.027Z,995
2019-04-19T07:36:16.764Z,995
2019-04-19T07:37:56.258Z,995.2
2019-04-19T07:39:58.389Z,995.3
2019-04-19T07:41:43.720Z,995.3
2019-04-19T07:43:23.446Z,995.6
2019-04-19T07:44:47.732Z,995.6
2019-04-19T07:46:30.840Z,995.6
2019-04-19T07:48:07.935Z,995.5
2019-04-19T07:49:15.867Z,995.6
2019-04-19T07:50:28.938Z,995.7
2019-04-19T07:51:41.849Z,995.6
2019-04-19T07:53:00.606Z,995.8
2019-04-19T07:56:21.044Z,995.8
2019-04-19T08:02:26.143Z,995.7
2019-04-19T08:08:38.961Z,995.9
2019-04-19T08:10:46.912Z,996
2019-04-19T08:12:49.176Z,995.9
2019-04-19T08:28:12.844Z,996.3
2019-04-19T08:29:40.550Z,996.4
2019-04-19T08:30:58.944Z,996.3
2019-04-19T08:32:05.136Z,996.4
2019-04-19T08:33:08.100Z,996.5
2019-04-19T08:34:17.765Z,996.5
2019-04-19T08:35:23.723Z,996.5
2019-04-19T08:36:40.993Z,996.5
2019-04-19T08:37:51.805Z,996.6
2019-04-19T08:39:36.623Z,996.6
2019-04-19T08:41:00.687Z,996.6
2019-04-19T08:42:53.725Z,996.8
2019-04-19T08:44:33.640Z,996.6
2019-04-19T08:45:42.925Z,996.7
2019-04-19T08:46:44.981Z,996.6
2019-04-19T08:48:08.906Z,996.7
2019-04-19T08:49:28.345Z,996.8
2019-04-19T08:50:47.260Z,996.8
2019-04-19T08:51:52.218Z,996.8
2019-04-19T08:53:13.328Z,996.7
2019-04-19T08:55:08.607Z,996.7
2019-04-19T08:56:34.251Z,996.7
2019-04-19T08:57:48.722Z,996.6
2019-04-19T08:59:38.314Z,996.5
2019-04-19T09:01:13.664Z,996.5
2019-04-19T09:02:57.688Z,996.4
2019-04-19T09:04:43.730Z,996.4
2019-04-19T09:07:33.809Z,996.3
2019-04-19T09:09:18.428Z,996.2
2019-04-19T09:11:10.801Z,996.1
2019-04-19T09:13:11.993Z,996.2
2019-04-19T09:15:00.595Z,996
2019-04-19T09:18:45.124Z,995.9
2019-04-19T09:20:32.558Z,995.9
2019-04-19T09:22:10.522Z,995.9
2019-04-19T09:23:45.404Z,995.7
2019-04-19T09:25:09.865Z,995.9
2019-04-19T09:26:40.890Z,995.8
2019-04-19T09:28:30.627Z,995.6
2019-04-19T09:30:16.091Z,995.6
2019-04-19T09:31:51.548Z,995.6
2019-04-19T09:32:55.036Z,995.5
2019-04-19T09:34:12.361Z,995.7
2019-04-19T09:35:19.019Z,995.5
2019-04-19T09:36:39.383Z,995.5
2019-04-19T09:38:10.290Z,995.5
2019-04-19T09:40:49.968Z,995.5
2019-04-19T09:42:09.463Z,995.4
2019-04-19T09:43:44.129Z,995.6
2019-04-19T09:45:00.046Z,995.4
2019-04-19T09:46:04.018Z,995.3
2019-04-19T09:47:08.715Z,995.3
2019-04-19T09:48:46.049Z,995.2
2019-04-19T09:50:11.705Z,995.2
2019-04-19T09:51:50.795Z,995.2
2019-04-19T09:53:51.616Z,995
2019-04-19T09:57:00.989Z,995.1
2019-04-19T09:58:42.639Z,995
2019-04-19T10:00:01.984Z,995.1
2019-04-19T10:01:10.513Z,995.1
2019-04-19T10:02:28.759Z,994.9
2019-04-19T10:03:49.057Z,995
2019-04-19T10:04:54.740Z,994.9
2019-04-19T10:05:59.439Z,994.8
2019-04-19T10:07:02.625Z,994.8
2019-04-19T10:08:07.430Z,994.8
2019-04-19T10:10:34.297Z,994.7
2019-04-19T10:11:40.888Z,994.6
2019-04-19T10:12:43.753Z,994.6
2019-04-19T10:13:48.777Z,994.5
2019-04-19T10:14:51.444Z,994.5
2019-04-19T10:15:54.369Z,994.6
2019-04-19T10:16:55.722Z,994.6
2019-04-19T10:18:00.603Z,994.6
2019-04-19T10:19:08.434Z,994.6
2019-04-19T10:20:12.697Z,994.7
2019-04-19T10:21:30.138Z,994.6
2019-04-19T10:22:34.575Z,994.6
2019-04-19T10:23:36.473Z,994.6
2019-04-19T10:24:41.185Z,994.7
2019-04-19T10:25:54.766Z,994.6
2019-04-19T10:26:58.599Z,994.5
2019-04-19T10:28:03.254Z,994.5
2019-04-19T10:29:23.283Z,994.5
2019-04-19T10:30:27.191Z,994.4
2019-04-19T10:31:29.494Z,994.4
2019-04-19T10:32:32.742Z,994.5
2019-04-19T10:33:51.277Z,994.4
2019-04-19T10:34:55.301Z,994.4
2019-04-19T10:35:57.637Z,994.5
2019-04-19T10:37:01.874Z,994.4
2019-04-19T10:38:04.681Z,994.4
2019-04-19T10:39:07.494Z,994.3
2019-04-19T10:40:09.933Z,994.1
2019-04-19T10:41:13.544Z,994.2
2019-04-19T10:42:20.602Z,994.2
2019-04-19T10:43:22.994Z,994.2
2019-04-19T10:44:27.336Z,994.1
2019-04-19T10:45:29.957Z,994.2
2019-04-19T10:46:32.899Z,994.1
2019-04-19T10:47:35.624Z,994.1
2019-04-19T10:48:38.656Z,994.1
2019-04-19T10:49:56.028Z,994.2
2019-04-19T10:51:05.867Z,994.1
2019-04-19T10:52:10.208Z,994.2
2019-04-19T10:53:14.214Z,993.8
2019-04-19T10:54:20.046Z,993.9
2019-04-19T10:55:22.929Z,993.9
2019-04-19T10:56:24.209Z,994
2019-04-19T10:57:27.510Z,993.8
2019-04-19T10:58:30.475Z,993.7
2019-04-19T10:59:34.294Z,993.7
2019-04-19T11:00:37.268Z,993.8
2019-04-19T11:01:41.153Z,993.8
2019-04-19T11:02:44.120Z,993.8
2019-04-19T11:03:47.201Z,993.7
2019-04-19T11:04:50.746Z,993.8
2019-04-19T11:05:54.499Z,993.7
2019-04-19T11:06:57.454Z,993.6
2019-04-19T11:08:01.220Z,993.7
2019-04-19T11:09:06.795Z,993.7
2019-04-19T11:10:09.511Z,993.7
2019-04-19T11:11:12.305Z,993.5
2019-04-19T11:12:15.378Z,993.5
2019-04-19T11:13:27.399Z,993.6
2019-04-19T11:14:31.973Z,993.7
2019-04-19T11:15:34.739Z,993.5
2019-04-19T11:16:37.452Z,993.4
2019-04-19T11:17:43.207Z,993.4
2019-04-19T11:18:47.405Z,993.4
2019-04-19T11:20:16.390Z,993.3
2019-04-19T11:21:20.839Z,993.5
2019-04-19T11:22:23.515Z,993.6
2019-04-19T11:23:27.077Z,993.6
2019-04-19T11:24:31.877Z,993.7
2019-04-19T11:25:34.099Z,993.5
2019-04-19T11:26:36.877Z,993.8
2019-04-19T11:27:39.288Z,993.5
2019-04-19T11:28:42.715Z,993.6
2019-04-19T11:29:46.807Z,993.5
2019-04-19T11:30:50.586Z,993.7
2019-04-19T11:31:54.173Z,993.7
2019-04-19T11:32:56.635Z,993.5
2019-04-19T11:33:59.222Z,993.6
2019-04-19T11:35:03.178Z,993.6
2019-04-19T11:36:05.587Z,993.6
2019-04-19T11:37:12.189Z,993.5
2019-04-19T11:38:15.831Z,993.5
2019-04-19T11:39:21.136Z,993.4
2019-04-19T11:40:22.819Z,993.5
2019-04-19T11:41:31.286Z,993.3
2019-04-19T11:42:37.234Z,993.4
2019-04-19T11:43:41.475Z,993.5
2019-04-19T11:44:43.656Z,993.4
2019-04-19T11:45:46.046Z,993.5
2019-04-19T11:46:51.789Z,993.2
2019-04-19T11:47:55.287Z,993.3
2019-04-19T11:48:58.133Z,993.3
2019-04-19T11:50:01.888Z,993.2
2019-04-19T11:51:05.563Z,993.2
2019-04-19T11:52:13.618Z,993.2
2019-04-19T11:53:18.506Z,993.3
2019-04-19T11:54:24.165Z,993.3
2019-04-19T11:55:28.280Z,993.3
2019-04-19T11:56:54.034Z,993.2
2019-04-19T11:57:58.643Z,993.1
2019-04-19T11:59:02.321Z,993.2
2019-04-19T12:00:05.956Z,993
2019-04-19T12:01:09.647Z,993.1
2019-04-19T12:02:13.133Z,993.1
2019-04-19T12:03:15.819Z,993.2
2019-04-19T12:04:18.424Z,993.3
2019-04-19T12:05:30.739Z,993.2
2019-04-19T12:06:34.310Z,993.2
2019-04-19T12:07:38.740Z,992.9
2019-04-19T12:08:44.464Z,993.1
2019-04-19T12:09:50.012Z,993.2
2019-04-19T12:10:54.285Z,993.1
2019-04-19T12:11:57.966Z,993
2019-04-19T12:13:01.340Z,993
2019-04-19T12:14:03.771Z,993.1
2019-04-19T12:15:08.222Z,992.9
2019-04-19T12:16:10.725Z,993
2019-04-19T12:17:15.002Z,992.8
2019-04-19T12:18:16.500Z,992.9
2019-04-19T12:19:20.102Z,992.9
2019-04-19T12:20:22.096Z,992.8
2019-04-19T12:21:25.080Z,992.8
2019-04-19T12:22:27.475Z,992.8
2019-04-19T12:23:30.293Z,992.8
2019-04-19T12:24:34.829Z,992.8
2019-04-19T12:25:37.519Z,992.8
2019-04-19T12:26:39.717Z,992.9
2019-04-19T12:27:43.516Z,992.9
2019-04-19T12:28:45.810Z,992.7
2019-04-19T12:29:52.344Z,992.9
2019-04-19T12:30:58.731Z,992.9
2019-04-19T12:32:01.293Z,992.8
2019-04-19T12:33:06.358Z,992.8
2019-04-19T12:34:11.605Z,992.7
2019-04-19T12:35:13.714Z,992.7
2019-04-19T12:36:16.937Z,992.8
2019-04-19T12:37:19.411Z,992.7
2019-04-19T12:38:21.861Z,992.6
2019-04-19T12:39:25.061Z,992.6
2019-04-19T12:40:27.659Z,992.4
2019-04-19T12:41:30.077Z,992.7
2019-04-19T12:42:33.854Z,992.8
2019-04-19T12:43:37.858Z,992.7
2019-04-19T12:44:42.001Z,992.8
2019-04-19T12:45:47.205Z,992.7
2019-04-19T12:47:03.130Z,992.7
2019-04-19T12:48:05.567Z,992.7
2019-04-19T12:49:08.772Z,992.7
2019-04-19T12:50:12.936Z,992.7
2019-04-19T12:51:16.007Z,992.6
2019-04-19T12:52:19.854Z,992.7
2019-04-19T12:53:23.026Z,992.6
2019-04-19T12:54:25.862Z,992.6
2019-04-19T12:55:30.197Z,992.6
2019-04-19T12:56:33.857Z,992.6
2019-04-19T12:57:36.149Z,992.5
2019-04-19T12:58:39.816Z,992.5
2019-04-19T12:59:44.052Z,992.5
2019-04-19T13:00:47.822Z,992.3
2019-04-19T13:01:50.057Z,992.6
2019-04-19T13:02:53.641Z,992.6
2019-04-19T13:03:56.538Z,992.6
2019-04-19T13:05:00.244Z,992.5
2019-04-19T13:06:03.794Z,992.6
2019-04-19T13:07:09.234Z,992.6
2019-04-19T13:08:11.489Z,992.6
2019-04-19T13:09:14.947Z,992.6
2019-04-19T13:10:18.009Z,992.6
2019-04-19T13:11:20.899Z,992.4
2019-04-19T13:12:23.746Z,992.5
2019-04-19T13:13:26.265Z,992.5
2019-04-19T13:14:29.804Z,992.6
2019-04-19T13:15:32.165Z,992.6
2019-04-19T13:16:34.549Z,992.5
2019-04-19T13:17:38.124Z,992.4
2019-04-19T13:18:42.211Z,992.6
2019-04-19T13:19:44.940Z,992.4
2019-04-19T13:20:48.071Z,992.4
2019-04-19T13:21:52.263Z,992.6
2019-04-19T13:22:54.632Z,992.5
2019-04-19T13:23:58.244Z,992.4
2019-04-19T13:25:01.508Z,992.5
2019-04-19T13:26:04.993Z,992.4
2019-04-19T13:27:07.536Z,992.4
2019-04-19T13:28:11.303Z,992.5
2019-04-19T13:29:17.587Z,992.4
2019-04-19T13:30:33.376Z,992.5
2019-04-19T13:31:38.666Z,992.6
2019-04-19T13:32:43.740Z,992.5
2019-04-19T13:33:48.667Z,992.5
2019-04-19T13:34:51.546Z,992.7
2019-04-19T13:35:54.954Z,992.6
2019-04-19T13:36:57.494Z,992.5
2019-04-19T13:38:00.895Z,992.5
2019-04-19T13:39:06.733Z,992.5
2019-04-19T13:40:09.981Z,992.5
2019-04-19T13:41:27.102Z,992.5
2019-04-19T13:42:30.507Z,992.4
2019-04-19T13:43:36.426Z,992.5
2019-04-19T13:44:38.792Z,992.3
2019-04-19T13:45:42.733Z,992.4
2019-04-19T13:46:46.585Z,992.4
2019-04-19T13:47:49.623Z,992.5
2019-04-19T13:48:54.367Z,992.3
2019-04-19T13:49:56.637Z,992.3
2019-04-19T13:51:00.247Z,992.3
2019-04-19T13:52:02.915Z,992.4
2019-04-19T13:53:06.649Z,992.3
2019-04-19T13:54:08.968Z,992.4
2019-04-19T13:55:12.613Z,992.4
2019-04-19T13:56:14.885Z,992.4
2019-04-19T13:57:17.556Z,992.3
2019-04-19T13:58:22.651Z,992.4
2019-04-19T13:59:46.875Z,992.3
2019-04-19T14:00:50.033Z,992.3
2019-04-19T14:01:52.406Z,992.3
2019-04-19T14:02:55.428Z,992.4
2019-04-19T14:03:59.447Z,992.4
2019-04-19T14:05:01.901Z,992.3
2019-04-19T14:06:06.197Z,992.5
2019-04-19T14:07:10.330Z,992.4
2019-04-19T14:08:13.362Z,992.4
2019-04-19T14:09:17.430Z,992.4
2019-04-19T14:10:20.968Z,992.3
2019-04-19T14:11:22.914Z,992.4
2019-04-19T14:12:25.009Z,992.4
2019-04-19T14:13:27.328Z,992.4
2019-04-19T14:14:28.788Z,992.2
2019-04-19T14:15:31.009Z,992.4
2019-04-19T14:16:33.448Z,992.1
2019-04-19T14:17:35.948Z,992.3
2019-04-19T14:18:38.779Z,992.2
2019-04-19T14:19:44.899Z,992.2
2019-04-19T14:20:54.554Z,992.2
2019-04-19T14:21:57.960Z,992.2
2019-04-19T14:23:01.454Z,992.2
2019-04-19T14:24:03.732Z,992.2
2019-04-19T14:25:09.495Z,992.2
2019-04-19T14:26:10.858Z,992.2
2019-04-19T14:27:15.158Z,992.2
2019-04-19T14:28:17.596Z,992.2
2019-04-19T14:29:21.017Z,992.4
2019-04-19T14:30:23.591Z,992.2
2019-04-19T14:31:26.072Z,992.2
2019-04-19T14:32:30.351Z,992.2
2019-04-19T14:33:34.677Z,992.1
2019-04-19T14:34:37.298Z,992.2
2019-04-19T14:35:39.799Z,992
2019-04-19T14:36:42.222Z,992
2019-04-19T14:37:45.617Z,991.8
2019-04-19T14:38:49.514Z,992
2019-04-19T14:39:54.351Z,991.9
2019-04-19T14:40:57.468Z,992.1
2019-04-19T14:42:01.295Z,992.1
2019-04-19T14:43:04.291Z,992.2
2019-04-19T14:44:07.081Z,992.2
2019-04-19T14:45:09.731Z,992.3
2019-04-19T14:46:11.914Z,992.1
2019-04-19T14:47:14.787Z,992.1
2019-04-19T14:48:26.094Z,992.2
2019-04-19T14:49:34.466Z,992.1
2019-04-19T14:50:55.127Z,992.2
2019-04-19T14:52:01.921Z,992.1
2019-04-19T14:53:07.626Z,992
2019-04-19T14:54:11.652Z,992
2019-04-19T14:55:15.656Z,992
2019-04-19T14:56:19.438Z,992
2019-04-19T14:57:23.883Z,992.1
2019-04-19T14:58:25.269Z,992.1
2019-04-19T14:59:26.904Z,992.1
2019-04-19T15:00:28.169Z,992.2
2019-04-19T15:01:30.762Z,992.1
2019-04-19T15:02:33.145Z,992.1
2019-04-19T15:03:35.425Z,992.1
2019-04-19T15:04:38.929Z,992.1
2019-04-19T15:05:43.629Z,992.1
2019-04-19T15:06:45.976Z,992.1
2019-04-19T15:07:48.832Z,992
2019-04-19T15:08:53.744Z,992
2019-04-19T15:09:57.390Z,992.1
2019-04-19T15:10:59.718Z,992.1
2019-04-19T15:12:04.378Z,992.1
2019-04-19T15:13:07.046Z,992
2019-04-19T15:14:16.590Z,992.1
2019-04-19T15:15:18.938Z,992.1
2019-04-19T15:16:22.021Z,992
2019-04-19T15:17:25.687Z,991.9
2019-04-19T15:18:28.285Z,991.9
2019-04-19T15:19:30.392Z,992.1
2019-04-19T15:20:33.763Z,991.9
2019-04-19T15:21:36.319Z,991.9
2019-04-19T15:22:38.962Z,991.8
2019-04-19T15:23:42.552Z,991.9
2019-04-19T15:24:46.778Z,991.9
2019-04-19T15:27:07.144Z,991.8
2019-04-19T15:28:10.653Z,991.8
2019-04-19T15:29:13.773Z,991.8
2019-04-19T15:30:16.771Z,991.8
2019-04-19T15:31:20.296Z,991.9
2019-04-19T15:32:24.086Z,991.4
2019-04-19T15:33:26.722Z,991.9
2019-04-19T15:34:31.607Z,991.8
2019-04-19T15:35:33.817Z,991.9
2019-04-19T15:36:37.641Z,991.6
2019-04-19T15:37:39.970Z,991.8
2019-04-19T15:38:43.850Z,991.8
2019-04-19T15:39:47.122Z,991.8
2019-04-19T15:40:50.012Z,991.9
2019-04-19T15:41:55.070Z,991.8
2019-04-19T15:42:58.994Z,992
2019-04-19T15:44:01.355Z,991.9
2019-04-19T15:45:04.895Z,991.9
2019-04-19T15:46:07.956Z,991.8
2019-04-19T15:47:12.540Z,991.9
2019-04-19T15:49:35.394Z,991.8
2019-04-19T15:50:38.084Z,991.8
2019-04-19T15:51:42.794Z,991.7
2019-04-19T15:52:46.244Z,991.8
2019-04-19T15:53:54.818Z,991.8
2019-04-19T15:54:59.550Z,991.8
2019-04-19T15:56:04.156Z,991.9
2019-04-19T15:57:07.940Z,991.8
2019-04-19T15:58:10.333Z,991.5
2019-04-19T15:59:13.309Z,991.8
2019-04-19T16:00:16.002Z,991.8
2019-04-19T16:01:17.953Z,991.8
2019-04-19T16:02:21.987Z,991.8
2019-04-19T16:03:23.387Z,991.9
2019-04-19T16:04:29.309Z,991.9
2019-04-19T16:05:31.584Z,991.9
2019-04-19T16:06:34.172Z,991.9
2019-04-19T16:07:37.600Z,991.7
2019-04-19T16:08:39.402Z,991.8
2019-04-19T16:09:41.866Z,991.8
2019-04-19T16:10:44.522Z,991.7
2019-04-19T16:11:50.575Z,991.9
2019-04-19T16:12:53.775Z,991.8
2019-04-19T16:13:56.162Z,991.8
2019-04-19T16:15:09.151Z,991.8
2019-04-19T16:16:12.051Z,991.8
2019-04-19T16:17:15.626Z,991.8
2019-04-19T16:18:17.927Z,991.9
2019-04-19T16:19:20.244Z,991.8
2019-04-19T16:20:23.002Z,991.8
2019-04-19T16:21:41.366Z,991.8
2019-04-19T16:22:45.667Z,991.9
2019-04-19T16:23:48.991Z,991.9
2019-04-19T16:24:52.331Z,991.8
2019-04-19T16:25:54.683Z,991.9
2019-04-19T16:26:57.328Z,991.9
2019-04-19T16:27:59.732Z,991.9
2019-04-19T16:29:01.972Z,991.9
2019-04-19T16:30:05.912Z,991.8
2019-04-19T16:31:08.334Z,991.9
2019-04-19T16:32:10.380Z,991.9
2019-04-19T16:33:13.465Z,991.8
2019-04-19T16:34:18.949Z,992
2019-04-19T16:35:22.180Z,991.8
2019-04-19T16:36:25.338Z,991.9
2019-04-19T16:37:30.460Z,991.8
2019-04-19T16:38:34.426Z,991.9
2019-04-19T16:39:37.329Z,991.8
2019-04-19T16:40:40.289Z,992
2019-04-19T16:41:42.710Z,991.8
2019-04-19T16:42:49.617Z,991.9
2019-04-19T16:43:53.443Z,991.9
2019-04-19T16:44:55.933Z,991.8
2019-04-19T16:46:14.401Z,991.9
2019-04-19T16:47:19.421Z,991.8
2019-04-19T16:48:20.732Z,992
2019-04-19T16:49:24.495Z,991.9
2019-04-19T16:50:25.910Z,991.9
2019-04-19T16:51:47.491Z,991.8
2019-04-19T16:52:50.995Z,991.9
2019-04-19T16:53:55.977Z,991.7
2019-04-19T16:55:00.525Z,991.9
2019-04-19T16:56:05.629Z,992
2019-04-19T16:57:24.516Z,991.9
2019-04-19T16:58:29.270Z,991.9
2019-04-19T16:59:30.928Z,992
2019-04-19T17:00:34.384Z,991.9
2019-04-19T17:01:36.733Z,991.9
2019-04-19T17:02:38.264Z,992
2019-04-19T17:03:41.326Z,991.8
2019-04-19T17:04:45.730Z,991.9
2019-04-19T17:05:50.626Z,991.8
2019-04-19T17:06:52.392Z,991.9
2019-04-19T17:07:55.164Z,991.9
2019-04-19T17:08:57.613Z,992
2019-04-19T17:10:00.114Z,991.9
2019-04-19T17:11:03.461Z,991.9
2019-04-19T17:12:07.417Z,991.9
2019-04-19T17:13:10.652Z,991.9
2019-04-19T17:14:16.878Z,991.9
2019-04-19T17:15:20.869Z,991.9
2019-04-19T17:16:25.045Z,991.8
2019-04-19T17:17:28.776Z,991.9
2019-04-19T17:18:32.370Z,991.9